Time;durP1;ratioP1;P1;durP2;ratioP2;P2;SDS_P1;SDS_P2;PMS_P1;PMS_P2;Temp;Humidity;BMP_temperature;BMP_pressure;BME280_temperature;BME280_humidity;BME280_pressure;Samples;Min_cycle;Max_cycle;Signal;HPM_P1;HPM_P2
2023/03/16 00:00:54;;;;;;;8.87;3.43;;;;;;;;;;4982956;28;20517;-71
2023/03/16 00:03:21;;;;;;;12.97;3.90;;;;;;;;;;4984243;28;20521;-71
2023/03/16 00:05:48;;;;;;;9.23;3.60;;;;;;;;;;4981597;28;20473;-71
2023/03/16 00:08:14;;;;;;;9.60;3.80;;;;;;;;;;4984293;28;24994;-71
2023/03/16 00:10:45;;;;;;;10.27;4.57;;;;;;;;;;4982795;28;21016;-71
2023/03/16 00:13:15;;;;;;;11.47;5.23;;;;;;;;;;4982321;28;20467;-71
2023/03/16 00:15:55;;;;;;;14.07;5.80;;;;;;;;;;4983006;28;20456;-71
2023/03/16 00:18:25;;;;;;;9.83;4.37;;;;;;;;;;4965344;28;20459;-71
2023/03/16 00:20:54;;;;;;;8.70;3.60;;;;;;;;;;4981316;28;20546;-71
2023/03/16 00:23:26;;;;;;;9.57;3.50;;;;;;;;;;4982036;28;20459;-71
2023/03/16 00:25:57;;;;;;;9.70;3.80;;;;;;;;;;4982367;28;20551;-70
2023/03/16 00:28:24;;;;;;;11.03;3.83;;;;;;;;;;4982113;28;20463;-70
2023/03/16 00:30:51;;;;;;;12.13;4.00;;;;;;;;;;4984443;28;20455;-70
2023/03/16 00:33:17;;;;;;;8.30;3.63;;;;;;;;;;4965107;28;20473;-71
2023/03/16 00:35:49;;;;;;;7.97;3.23;;;;;;;;;;4964924;28;20580;-71
2023/03/16 00:38:16;;;;;;;12.90;3.70;;;;;;;;;;4981651;28;20474;-71
2023/03/16 00:40:43;;;;;;;8.10;3.83;;;;;;;;;;4966345;28;20459;-71
2023/03/16 00:43:10;;;;;;;13.20;5.67;;;;;;;;;;4982046;28;21369;-71
2023/03/16 00:45:37;;;;;;;11.27;6.67;;;;;;;;;;4965389;28;20466;-71
2023/03/16 00:48:04;;;;;;;13.03;5.90;;;;;;;;;;4944782;28;20467;-71
2023/03/16 00:50:31;;;;;;;13.60;5.83;;;;;;;;;;4983938;28;21027;-71
2023/03/16 00:52:58;;;;;;;13.87;7.17;;;;;;;;;;4981908;28;20443;-71
2023/03/16 00:55:25;;;;;;;11.77;6.30;;;;;;;;;;4966111;28;20451;-70
2023/03/16 00:57:53;;;;;;;18.53;7.57;;;;;;;;;;4980784;28;20950;-70
2023/03/16 01:00:20;;;;;;;10.67;5.40;;;;;;;;;;4965164;28;20518;-71
2023/03/16 01:02:47;;;;;;;9.93;5.03;;;;;;;;;;4967036;28;20460;-71
2023/03/16 01:05:14;;;;;;;9.37;4.33;;;;;;;;;;4944886;28;20467;-71
2023/03/16 01:07:41;;;;;;;10.80;4.30;;;;;;;;;;4963741;28;20487;-71
2023/03/16 01:10:08;;;;;;;10.00;3.57;;;;;;;;;;4962356;28;20475;-71
2023/03/16 01:12:35;;;;;;;9.57;3.90;;;;;;;;;;4964399;28;21988;-71
2023/03/16 01:15:02;;;;;;;11.17;3.83;;;;;;;;;;4926505;28;20547;-71
2023/03/16 01:17:29;;;;;;;13.47;4.50;;;;;;;;;;4965549;28;20467;-71
2023/03/16 01:19:55;;;;;;;11.83;4.50;;;;;;;;;;4948488;28;20512;-71
2023/03/16 01:22:22;;;;;;;15.47;6.03;;;;;;;;;;4966482;28;20468;-71
2023/03/16 01:24:49;;;;;;;10.17;4.30;;;;;;;;;;4966553;28;20534;-71
2023/03/16 01:27:16;;;;;;;13.47;4.43;;;;;;;;;;4967670;28;20538;-71
2023/03/16 01:29:43;;;;;;;13.73;4.83;;;;;;;;;;4948807;28;20471;-71
2023/03/16 01:32:10;;;;;;;12.10;5.60;;;;;;;;;;4931696;28;20464;-71
2023/03/16 01:34:37;;;;;;;15.77;7.27;;;;;;;;;;4965815;28;20464;-71
2023/03/16 01:37:05;;;;;;;10.73;5.73;;;;;;;;;;4966193;28;20835;-70
2023/03/16 01:39:48;;;;;;;10.77;5.20;;;;;;;;;;4966171;28;20579;-71
2023/03/16 01:42:15;;;;;;;8.00;4.77;;;;;;;;;;4974812;28;20459;-71
2023/03/16 02:16:27;;;;;;;10.40;3.80;;;;;;;;;;4780909;28;21225;-72
2023/03/16 02:18:54;;;;;;;12.27;4.00;;;;;;;;;;4966749;28;20460;-72
2023/03/16 02:21:36;;;;;;;11.20;4.53;;;;;;;;;;4964376;28;20452;-72
2023/03/16 02:24:03;;;;;;;8.20;3.77;;;;;;;;;;4948836;28;20781;-72
2023/03/16 02:26:38;;;;;;;8.20;4.47;;;;;;;;;;4964767;28;20456;-72
2023/03/16 02:29:05;;;;;;;10.80;4.40;;;;;;;;;;4931726;28;20518;-71
2023/03/16 02:31:32;;;;;;;11.07;4.30;;;;;;;;;;4949370;28;23786;-72
2023/03/16 02:34:00;;;;;;;11.10;4.40;;;;;;;;;;4947463;28;20451;-72
2023/03/16 02:36:26;;;;;;;8.67;4.10;;;;;;;;;;4966912;28;20463;-72
2023/03/16 02:38:53;;;;;;;8.70;4.37;;;;;;;;;;4947090;28;20468;-72
2023/03/16 02:41:20;;;;;;;11.20;4.90;;;;;;;;;;4948942;28;20518;-72
2023/03/16 02:43:54;;;;;;;9.63;4.60;;;;;;;;;;4932499;28;20469;-72
2023/03/16 02:46:28;;;;;;;11.63;4.50;;;;;;;;;;4963441;28;20447;-72
2023/03/16 02:49:04;;;;;;;13.57;4.30;;;;;;;;;;4941633;28;21057;-72
2023/03/16 02:51:31;;;;;;;13.57;4.80;;;;;;;;;;4930310;28;20465;-72
2023/03/16 02:53:58;;;;;;;12.33;4.47;;;;;;;;;;4966047;28;20467;-72
2023/03/16 02:56:26;;;;;;;8.70;4.03;;;;;;;;;;4963366;28;20575;-72
2023/03/16 02:58:56;;;;;;;13.63;4.63;;;;;;;;;;4947169;28;20484;-72
2023/03/16 03:01:23;;;;;;;10.67;3.90;;;;;;;;;;4967733;28;21038;-72
2023/03/16 03:03:50;;;;;;;14.10;5.07;;;;;;;;;;4961841;28;20460;-72
2023/03/16 03:06:17;;;;;;;8.27;4.20;;;;;;;;;;4966274;28;20474;-72
2023/03/16 03:08:44;;;;;;;11.27;4.50;;;;;;;;;;4960153;28;20506;-72
2023/03/16 03:11:11;;;;;;;11.87;4.30;;;;;;;;;;4966216;28;20879;-72
2023/03/16 03:13:38;;;;;;;12.40;4.57;;;;;;;;;;4963107;28;20456;-72
2023/03/16 03:16:09;;;;;;;11.33;4.57;;;;;;;;;;4960832;28;20453;-72
2023/03/16 03:18:36;;;;;;;9.57;4.47;;;;;;;;;;4964931;28;20467;-72
2023/03/16 03:21:03;;;;;;;9.60;4.50;;;;;;;;;;4962065;28;20482;-71
2023/03/16 03:23:34;;;;;;;8.30;4.40;;;;;;;;;;4946586;28;20526;-71
2023/03/16 03:26:01;;;;;;;10.53;4.57;;;;;;;;;;4965554;28;20463;-71
2023/03/16 03:28:29;;;;;;;8.93;3.70;;;;;;;;;;4946879;28;20827;-72
2023/03/16 03:30:56;;;;;;;8.87;4.00;;;;;;;;;;4964263;28;20997;-71
2023/03/16 03:33:22;;;;;;;8.50;3.77;;;;;;;;;;4930885;28;20503;-73
2023/03/16 03:35:54;;;;;;;8.90;4.10;;;;;;;;;;4948147;28;20460;-72
2023/03/16 03:38:21;;;;;;;10.80;4.23;;;;;;;;;;4947260;28;20514;-72
2023/03/16 03:40:49;;;;;;;10.63;4.57;;;;;;;;;;4948733;28;20483;-72
2023/03/16 03:43:16;;;;;;;10.83;4.03;;;;;;;;;;4962309;28;20474;-72
2023/03/16 03:45:44;;;;;;;10.97;4.67;;;;;;;;;;4964351;28;20467;-72
2023/03/16 03:48:11;;;;;;;10.93;5.87;;;;;;;;;;4962220;28;20823;-72
2023/03/16 03:50:39;;;;;;;12.60;5.60;;;;;;;;;;4965380;28;20471;-72
2023/03/16 03:53:20;;;;;;;12.60;5.20;;;;;;;;;;4945645;28;20514;-72
2023/03/16 03:56:08;;;;;;;11.27;5.40;;;;;;;;;;4963663;28;20464;-72
2023/03/16 03:58:36;;;;;;;9.47;5.17;;;;;;;;;;4946305;28;20647;-72
2023/03/16 04:01:03;;;;;;;13.50;5.33;;;;;;;;;;4967186;28;20463;-72
2023/03/16 04:03:31;;;;;;;9.70;5.10;;;;;;;;;;4964446;28;20513;-72
2023/03/16 04:05:58;;;;;;;11.17;4.87;;;;;;;;;;4961325;28;20460;-71
2023/03/16 04:08:26;;;;;;;13.07;6.00;;;;;;;;;;4948628;28;20459;-72
2023/03/16 04:10:53;;;;;;;11.90;6.40;;;;;;;;;;4963531;28;20456;-72
2023/03/16 04:13:20;;;;;;;12.17;6.27;;;;;;;;;;4959607;28;20955;-72
2023/03/16 04:15:48;;;;;;;11.50;5.57;;;;;;;;;;4962162;28;20866;-72
2023/03/16 04:18:22;;;;;;;12.40;5.67;;;;;;;;;;4945853;28;20468;-72
2023/03/16 04:20:48;;;;;;;12.33;5.20;;;;;;;;;;4953057;28;20895;-72
2023/03/16 04:23:19;;;;;;;8.47;5.47;;;;;;;;;;4965007;28;20494;-72
2023/03/16 04:25:47;;;;;;;12.43;6.33;;;;;;;;;;4964676;28;20984;-72
2023/03/16 04:28:16;;;;;;;9.23;4.83;;;;;;;;;;4966768;28;20509;-72
2023/03/16 04:30:45;;;;;;;11.77;5.27;;;;;;;;;;4982639;28;20463;-72
2023/03/16 04:33:21;;;;;;;8.87;4.67;;;;;;;;;;4965027;28;20814;-72
2023/03/16 04:35:48;;;;;;;16.20;5.73;;;;;;;;;;4964449;28;20953;-72
2023/03/16 04:38:15;;;;;;;15.13;5.53;;;;;;;;;;4962851;28;20819;-72
2023/03/16 04:40:53;;;;;;;10.43;5.80;;;;;;;;;;4961599;28;20470;-72
2023/03/16 04:43:23;;;;;;;13.33;6.30;;;;;;;;;;4961263;28;20455;-72
2023/03/16 04:45:54;;;;;;;8.90;5.07;;;;;;;;;;4962742;28;20460;-72
2023/03/16 04:48:22;;;;;;;12.63;5.90;;;;;;;;;;4963338;28;20456;-72
2023/03/16 04:50:50;;;;;;;14.43;6.20;;;;;;;;;;4962077;28;20872;-72
2023/03/16 04:53:16;;;;;;;11.23;5.90;;;;;;;;;;4960961;28;20474;-72
2023/03/16 04:55:50;;;;;;;12.47;5.60;;;;;;;;;;4939718;28;20467;-72
2023/03/16 04:58:17;;;;;;;14.43;5.93;;;;;;;;;;4962900;28;20479;-72
2023/03/16 05:00:47;;;;;;;15.00;6.30;;;;;;;;;;4969218;28;20549;-72
2023/03/16 05:03:21;;;;;;;15.93;5.90;;;;;;;;;;4961632;28;20459;-73
2023/03/16 05:05:48;;;;;;;18.57;6.23;;;;;;;;;;4963032;28;20456;-72
2023/03/16 05:08:15;;;;;;;18.10;7.47;;;;;;;;;;4961018;28;20510;-72
2023/03/16 05:10:47;;;;;;;14.37;6.30;;;;;;;;;;4944915;28;20554;-72
2023/03/16 05:13:14;;;;;;;14.03;6.37;;;;;;;;;;4961088;28;20490;-72
2023/03/16 05:15:42;;;;;;;10.63;5.90;;;;;;;;;;4963197;28;20464;-72
2023/03/16 05:18:17;;;;;;;16.87;7.97;;;;;;;;;;4979703;28;20516;-72
2023/03/16 05:20:44;;;;;;;18.77;8.87;;;;;;;;;;4982424;28;20462;-72
2023/03/16 05:23:12;;;;;;;18.00;6.67;;;;;;;;;;4980724;28;20458;-72
2023/03/16 05:25:45;;;;;;;17.03;7.07;;;;;;;;;;4982198;28;20538;-73
2023/03/16 05:28:14;;;;;;;17.17;7.03;;;;;;;;;;4980532;28;20463;-72
2023/03/16 05:30:46;;;;;;;22.03;6.97;;;;;;;;;;4982469;28;20468;-74
2023/03/16 05:33:20;;;;;;;19.13;7.50;;;;;;;;;;4970227;28;20455;-72
2023/03/16 05:35:51;;;;;;;14.87;7.30;;;;;;;;;;4953070;28;20475;-73
2023/03/16 05:38:18;;;;;;;19.20;8.00;;;;;;;;;;4969609;28;20966;-73
2023/03/16 05:40:45;;;;;;;16.10;7.40;;;;;;;;;;4981733;28;20506;-73
2023/03/16 05:43:21;;;;;;;12.00;6.73;;;;;;;;;;4965028;28;20710;-73
2023/03/16 05:45:50;;;;;;;13.27;6.40;;;;;;;;;;4981635;28;20451;-73
2023/03/16 05:48:19;;;;;;;11.27;6.20;;;;;;;;;;4979498;28;20455;-73
2023/03/16 05:50:51;;;;;;;12.13;6.17;;;;;;;;;;4981270;28;20945;-73
2023/03/16 05:53:27;;;;;;;14.50;6.67;;;;;;;;;;4976130;28;20535;-73
2023/03/16 05:56:00;;;;;;;14.33;6.50;;;;;;;;;;4984063;28;21200;-73
2023/03/16 05:58:32;;;;;;;11.37;6.40;;;;;;;;;;4999069;28;20459;-73
2023/03/16 06:01:03;;;;;;;14.20;6.57;;;;;;;;;;4978827;28;20459;-73
2023/03/16 06:03:30;;;;;;;14.43;6.90;;;;;;;;;;4983287;28;20447;-70
2023/03/16 06:05:58;;;;;;;17.80;7.47;;;;;;;;;;4985859;28;20458;-71
2023/03/16 06:08:29;;;;;;;16.00;7.07;;;;;;;;;;4985482;28;20581;-75
2023/03/16 06:11:05;;;;;;;15.37;7.27;;;;;;;;;;4983508;28;20466;-72
2023/03/16 06:13:32;;;;;;;14.17;7.13;;;;;;;;;;4983358;28;20512;-71
2023/03/16 06:15:59;;;;;;;14.13;6.83;;;;;;;;;;4972004;28;20521;-71
2023/03/16 06:18:26;;;;;;;12.17;5.47;;;;;;;;;;4986828;28;20818;-72
2023/03/16 06:20:52;;;;;;;11.47;5.13;;;;;;;;;;4985315;28;20455;-71
2023/03/16 06:23:38;;;;;;;12.40;5.37;;;;;;;;;;4985918;28;20455;-73
2023/03/16 06:26:06;;;;;;;9.23;4.20;;;;;;;;;;4967522;28;20505;-71
2023/03/16 06:28:50;;;;;;;12.10;5.77;;;;;;;;;;4964750;28;20452;-71
2023/03/16 06:31:17;;;;;;;17.23;5.10;;;;;;;;;;4903927;28;20552;-71
2023/03/16 06:33:45;;;;;;;7.27;3.37;;;;;;;;;;4953937;28;20674;-72
2023/03/16 06:36:12;;;;;;;7.67;3.27;;;;;;;;;;4965346;28;20466;-74
2023/03/16 06:38:44;;;;;;;10.70;4.43;;;;;;;;;;4912961;28;221506;-76
2023/03/16 06:41:23;;;;;;;12.00;4.73;;;;;;;;;;4971043;28;20607;-76
2023/03/16 06:43:50;;;;;;;10.40;4.50;;;;;;;;;;4971075;28;20581;-75
2023/03/16 06:46:17;;;;;;;12.90;5.60;;;;;;;;;;4983134;28;20451;-75
2023/03/16 06:48:46;;;;;;;13.77;4.23;;;;;;;;;;4969667;28;20471;-74
2023/03/16 06:51:13;;;;;;;9.13;4.30;;;;;;;;;;4945768;28;20574;-73
2023/03/16 06:53:43;;;;;;;12.17;4.63;;;;;;;;;;4952986;28;20466;-72
2023/03/16 06:56:10;;;;;;;12.87;5.13;;;;;;;;;;4964218;28;20451;-71
2023/03/16 06:58:40;;;;;;;13.40;4.97;;;;;;;;;;4963101;28;20457;-72
2023/03/16 07:01:07;;;;;;;12.13;5.37;;;;;;;;;;4965203;28;20841;-70
2023/03/16 07:03:34;;;;;;;10.30;4.37;;;;;;;;;;4982357;28;20939;-70
2023/03/16 07:06:11;;;;;;;10.20;3.60;;;;;;;;;;4949371;28;20457;-70
2023/03/16 07:08:38;;;;;;;9.60;2.57;;;;;;;;;;4950881;28;20463;-72
2023/03/16 07:11:04;;;;;;;8.93;2.83;;;;;;;;;;4922068;28;20243;-70
2023/03/16 07:13:33;;;;;;;10.17;3.50;;;;;;;;;;4959499;28;20545;-71
2023/03/16 07:16:01;;;;;;;7.80;3.07;;;;;;;;;;4980445;28;20808;-70
2023/03/16 07:18:30;;;;;;;9.03;3.37;;;;;;;;;;4951358;28;20463;-71
2023/03/16 07:20:57;;;;;;;9.17;3.70;;;;;;;;;;4964060;28;20284;-70
2023/03/16 07:23:25;;;;;;;11.47;4.00;;;;;;;;;;4946649;28;20236;-71
2023/03/16 07:25:59;;;;;;;10.13;3.47;;;;;;;;;;4927407;28;20823;-71
2023/03/16 07:28:54;;;;;;;12.30;3.73;;;;;;;;;;4937442;28;20506;-71
2023/03/16 07:31:24;;;;;;;10.63;3.37;;;;;;;;;;4930599;28;20468;-71
2023/03/16 07:33:52;;;;;;;5.77;3.23;;;;;;;;;;4943938;28;20236;-72
2023/03/16 07:36:28;;;;;;;9.90;3.63;;;;;;;;;;4940138;28;20459;-71
2023/03/16 07:38:58;;;;;;;4.43;2.10;;;;;;;;;;4954118;28;220379;-71
2023/03/16 07:41:25;;;;;;;6.93;3.13;;;;;;;;;;4946680;28;20534;-71
2023/03/16 07:43:52;;;;;;;9.57;3.07;;;;;;;;;;4943156;28;20233;-72
2023/03/16 07:46:37;;;;;;;10.90;3.87;;;;;;;;;;4945599;28;20456;-73
2023/03/16 07:49:04;;;;;;;13.93;3.77;;;;;;;;;;4962053;28;20990;-71
2023/03/16 07:51:31;;;;;;;8.30;2.67;;;;;;;;;;4963048;28;20888;-71
2023/03/16 07:53:58;;;;;;;8.20;3.30;;;;;;;;;;4944094;28;20316;-71
2023/03/16 07:56:29;;;;;;;6.97;2.97;;;;;;;;;;4943883;28;21041;-71
2023/03/16 07:59:19;;;;;;;8.03;3.30;;;;;;;;;;4930532;28;20547;-71
2023/03/16 08:01:47;;;;;;;6.17;3.10;;;;;;;;;;4946859;28;20466;-71
2023/03/16 08:04:14;;;;;;;9.97;3.70;;;;;;;;;;4941925;28;20539;-71
2023/03/16 08:06:41;;;;;;;10.60;3.33;;;;;;;;;;4945408;28;22417;-72
2023/03/16 08:09:08;;;;;;;8.30;3.30;;;;;;;;;;4947442;28;20547;-71
2023/03/16 08:11:55;;;;;;;7.40;2.63;;;;;;;;;;4945215;28;20447;-71
2023/03/16 08:14:22;;;;;;;8.13;3.40;;;;;;;;;;4943540;28;20467;-72
2023/03/16 08:17:18;;;;;;;9.03;3.53;;;;;;;;;;4947604;28;20232;-72
2023/03/16 08:19:46;;;;;;;5.93;3.10;;;;;;;;;;4980848;28;20806;-72
2023/03/16 08:22:13;;;;;;;8.17;3.00;;;;;;;;;;4980673;28;20315;-71
2023/03/16 08:24:43;;;;;;;5.87;3.03;;;;;;;;;;4978681;28;20577;-69
2023/03/16 08:27:14;;;;;;;7.30;2.80;;;;;;;;;;4978799;28;20851;-73
2023/03/16 08:29:50;;;;;;;8.10;2.40;;;;;;;;;;4978871;28;20950;-72
2023/03/16 08:32:18;;;;;;;8.67;3.77;;;;;;;;;;4950206;28;20235;-71
2023/03/16 08:34:46;;;;;;;5.20;2.47;;;;;;;;;;4978725;28;20450;-71
2023/03/16 08:37:13;;;;;;;5.60;2.63;;;;;;;;;;4979974;28;20434;-70
2023/03/16 08:39:40;;;;;;;6.50;2.80;;;;;;;;;;4980284;28;20315;-71
2023/03/16 08:42:14;;;;;;;8.50;3.23;;;;;;;;;;4979546;28;20722;-73
2023/03/16 08:44:44;;;;;;;9.20;3.10;;;;;;;;;;4963812;28;20257;-73
2023/03/16 08:47:11;;;;;;;5.30;2.30;;;;;;;;;;4966091;28;20228;-73
2023/03/16 08:49:41;;;;;;;5.30;2.30;;;;;;;;;;4979001;28;20227;-70
2023/03/16 08:52:11;;;;;;;9.23;3.33;;;;;;;;;;4979030;28;20227;-71
2023/03/16 08:54:40;;;;;;;4.60;1.73;;;;;;;;;;4980350;28;20228;-71
2023/03/16 08:57:18;;;;;;;6.27;2.70;;;;;;;;;;4983634;28;20223;-69
2023/03/16 08:59:47;;;;;;;10.50;3.50;;;;;;;;;;4979773;28;20234;-70
2023/03/16 09:02:14;;;;;;;5.33;2.07;;;;;;;;;;4982355;28;20466;-70
2023/03/16 09:04:41;;;;;;;11.00;3.27;;;;;;;;;;4979685;28;20223;-70
2023/03/16 09:07:08;;;;;;;9.67;3.83;;;;;;;;;;4981873;28;21066;-70
2023/03/16 09:09:35;;;;;;;5.43;3.03;;;;;;;;;;4980886;28;20870;-75
2023/03/16 09:12:03;;;;;;;6.03;2.93;;;;;;;;;;4982560;28;20231;-74
2023/03/16 09:14:30;;;;;;;5.53;2.67;;;;;;;;;;4995371;28;20227;-75
2023/03/16 09:16:57;;;;;;;5.40;2.50;;;;;;;;;;4982109;28;20759;-73
2023/03/16 09:19:24;;;;;;;5.43;2.50;;;;;;;;;;4980016;28;20246;-75
2023/03/16 09:21:52;;;;;;;7.00;3.17;;;;;;;;;;4982176;28;20934;-74
2023/03/16 09:24:19;;;;;;;5.37;2.90;;;;;;;;;;4979882;28;20691;-75
2023/03/16 09:26:46;;;;;;;5.47;2.97;;;;;;;;;;4981858;28;20538;-72
2023/03/16 09:29:13;;;;;;;8.33;3.63;;;;;;;;;;4979518;28;20300;-70
2023/03/16 09:31:40;;;;;;;6.50;3.33;;;;;;;;;;4982012;28;20475;-70
2023/03/16 09:34:08;;;;;;;9.73;4.23;;;;;;;;;;4979961;28;20282;-69
2023/03/16 09:36:36;;;;;;;5.43;2.70;;;;;;;;;;4980026;28;20463;-70
2023/03/16 09:39:03;;;;;;;5.57;3.10;;;;;;;;;;4984914;28;20881;-70
2023/03/16 09:41:32;;;;;;;5.60;3.00;;;;;;;;;;4959376;28;20695;-71
2023/03/16 09:44:09;;;;;;;6.97;3.10;;;;;;;;;;4973928;28;20719;-70
2023/03/16 09:46:40;;;;;;;7.37;4.03;;;;;;;;;;4984767;28;20467;-71
2023/03/16 09:49:09;;;;;;;8.37;3.87;;;;;;;;;;4983713;28;20568;-70
2023/03/16 09:51:54;;;;;;;10.50;3.97;;;;;;;;;;4983131;28;20227;-73
2023/03/16 09:54:21;;;;;;;7.83;3.50;;;;;;;;;;4967129;28;20462;-72
2023/03/16 09:56:49;;;;;;;7.43;2.70;;;;;;;;;;4982312;28;20239;-70
2023/03/16 09:59:17;;;;;;;7.20;2.87;;;;;;;;;;4962861;28;20470;-73
2023/03/16 10:01:44;;;;;;;5.47;2.47;;;;;;;;;;4968426;28;20235;-70
2023/03/16 10:04:23;;;;;;;5.93;2.80;;;;;;;;;;4984240;28;23278;-70
2023/03/16 10:06:54;;;;;;;7.10;2.83;;;;;;;;;;4968335;28;20242;-72
2023/03/16 10:09:37;;;;;;;4.60;2.43;;;;;;;;;;4965011;28;20459;-70
2023/03/16 10:12:05;;;;;;;7.33;2.67;;;;;;;;;;4931990;28;20471;-70
2023/03/16 10:14:31;;;;;;;5.87;2.73;;;;;;;;;;4982939;28;20470;-70
2023/03/16 10:17:17;;;;;;;8.70;3.63;;;;;;;;;;4930987;28;20235;-72
2023/03/16 10:19:46;;;;;;;5.90;3.37;;;;;;;;;;4955308;28;20259;-73
2023/03/16 10:22:18;;;;;;;5.97;3.77;;;;;;;;;;4946292;28;218752;-74
2023/03/16 10:24:55;;;;;;;11.03;3.80;;;;;;;;;;4967741;28;20227;-71
2023/03/16 10:27:27;;;;;;;7.47;3.63;;;;;;;;;;4947028;28;21002;-74
2023/03/16 10:29:55;;;;;;;5.93;2.90;;;;;;;;;;4947988;28;20459;-73
2023/03/16 10:32:27;;;;;;;8.23;3.07;;;;;;;;;;4938534;28;20455;-74
2023/03/16 10:34:59;;;;;;;3.90;2.40;;;;;;;;;;4946159;28;222729;-72
2023/03/16 10:37:27;;;;;;;7.50;2.90;;;;;;;;;;4982868;28;20240;-73
2023/03/16 10:39:55;;;;;;;4.87;2.40;;;;;;;;;;4969932;28;20240;-74
2023/03/16 10:42:22;;;;;;;3.47;2.50;;;;;;;;;;4928678;28;20451;-74
2023/03/16 10:44:55;;;;;;;6.07;2.63;;;;;;;;;;4984235;28;20238;-75
2023/03/16 10:47:23;;;;;;;4.43;2.60;;;;;;;;;;4961418;28;20702;-73
2023/03/16 10:49:50;;;;;;;5.90;2.93;;;;;;;;;;4967927;28;21319;-75
2023/03/16 10:52:37;;;;;;;5.93;2.50;;;;;;;;;;4940318;28;1205935;-74
2023/03/16 10:55:22;;;;;;;8.43;3.20;;;;;;;;;;4742800;28;5092020;-74
2023/03/16 10:57:50;;;;;;;7.10;2.90;;;;;;;;;;4941453;28;222919;-71
2023/03/16 11:00:21;;;;;;;4.27;2.50;;;;;;;;;;4924163;28;20362;-75
2023/03/16 11:02:48;;;;;;;6.33;2.50;;;;;;;;;;4982402;28;20235;-74
2023/03/16 11:05:16;;;;;;;3.73;1.77;;;;;;;;;;4974685;28;215214;-74
2023/03/16 11:07:49;;;;;;;3.13;1.83;;;;;;;;;;4983711;28;20231;-74
2023/03/16 11:10:35;;;;;;;4.30;2.23;;;;;;;;;;4963963;28;20227;-74
2023/03/16 11:13:19;;;;;;;4.40;2.00;;;;;;;;;;4961154;28;219911;-72
2023/03/16 11:15:56;;;;;;;4.97;3.50;;;;;;;;;;4951731;28;20235;-76
2023/03/16 11:18:37;;;;;;;2.97;2.43;;;;;;;;;;4963017;28;20615;-74
2023/03/16 11:21:06;;;;;;;3.80;2.10;;;;;;;;;;4958224;28;218771;-75
2023/03/16 11:23:34;;;;;;;4.53;1.93;;;;;;;;;;4982631;28;20289;-75
2023/03/16 11:26:02;;;;;;;6.63;2.03;;;;;;;;;;4953706;28;20227;-76
2023/03/16 11:28:36;;;;;;;3.67;1.90;;;;;;;;;;4982421;28;20327;-75
2023/03/16 11:31:03;;;;;;;6.93;3.07;;;;;;;;;;4968074;28;20628;-75
2023/03/16 11:33:30;;;;;;;3.27;2.07;;;;;;;;;;4982997;28;20236;-78
2023/03/16 11:36:00;;;;;;;4.03;2.10;;;;;;;;;;4995993;28;20219;-74
2023/03/16 11:38:32;;;;;;;5.23;2.53;;;;;;;;;;4956540;28;20238;-76
2023/03/16 11:41:03;;;;;;;3.53;2.00;;;;;;;;;;4936109;28;20241;-75
2023/03/16 11:43:33;;;;;;;6.00;3.10;;;;;;;;;;4980617;28;20228;-72
2023/03/16 11:46:21;;;;;;;5.77;1.90;;;;;;;;;;4924572;28;20231;-73
2023/03/16 11:48:54;;;;;;;7.60;3.30;;;;;;;;;;4920609;28;20232;-73
2023/03/16 11:51:25;;;;;;;7.20;3.10;;;;;;;;;;4934103;28;20239;-79
2023/03/16 11:53:52;;;;;;;6.13;3.87;;;;;;;;;;4966972;28;20228;-74
2023/03/16 11:56:30;;;;;;;6.33;3.10;;;;;;;;;;4920063;28;20220;-75
2023/03/16 11:59:16;;;;;;;3.27;1.33;;;;;;;;;;4955392;28;20232;-78
2023/03/16 12:01:53;;;;;;;6.80;2.70;;;;;;;;;;4946487;28;20727;-79
2023/03/16 12:04:33;;;;;;;2.40;1.80;;;;;;;;;;4968395;28;20230;-76
2023/03/16 12:07:00;;;;;;;5.40;2.27;;;;;;;;;;4959464;28;221641;-73
2023/03/16 12:09:36;;;;;;;3.87;2.00;;;;;;;;;;4944678;28;20236;-74
2023/03/16 12:12:12;;;;;;;6.47;2.57;;;;;;;;;;4942150;28;20683;-71
2023/03/16 12:15:15;;;;;;;3.07;1.60;;;;;;;;;;4921737;28;20294;-77
2023/03/16 12:17:42;;;;;;;2.63;1.27;;;;;;;;;;4981079;28;20815;-76
2023/03/16 12:20:22;;;;;;;1.93;1.43;;;;;;;;;;4980842;28;20230;-76
2023/03/16 12:22:50;;;;;;;2.10;1.27;;;;;;;;;;4914603;28;679355;-75
2023/03/16 12:25:30;;;;;;;2.23;1.60;;;;;;;;;;4966466;28;20310;-77
2023/03/16 12:27:59;;;;;;;2.80;1.23;;;;;;;;;;4936342;28;20231;-77
2023/03/16 12:30:26;;;;;;;1.57;0.90;;;;;;;;;;4965122;28;20698;-75
2023/03/16 12:33:13;;;;;;;2.40;1.20;;;;;;;;;;4981839;28;20235;-71
2023/03/16 12:36:02;;;;;;;2.03;0.97;;;;;;;;;;4978024;28;20274;-72
2023/03/16 12:38:29;;;;;;;2.77;1.53;;;;;;;;;;4977944;28;20259;-70
2023/03/16 12:41:29;;;;;;;2.67;1.10;;;;;;;;;;4982245;28;20922;-71
2023/03/16 12:44:04;;;;;;;2.10;1.50;;;;;;;;;;4931551;28;20286;-75
2023/03/16 12:46:55;;;;;;;1.60;1.20;;;;;;;;;;4957881;28;20235;-75
2023/03/16 12:49:23;;;;;;;3.20;1.47;;;;;;;;;;4973235;28;215762;-75
2023/03/16 12:52:00;;;;;;;3.97;1.20;;;;;;;;;;4950373;28;20239;-75
2023/03/16 12:54:27;;;;;;;4.47;1.07;;;;;;;;;;4980202;28;20283;-75
2023/03/16 12:57:06;;;;;;;3.40;1.30;;;;;;;;;;4927251;28;225274;-72
2023/03/16 12:59:35;;;;;;;4.73;0.90;;;;;;;;;;4910926;28;20231;-76
2023/03/16 13:02:02;;;;;;;5.40;1.30;;;;;;;;;;4919195;28;219878;-73
2023/03/16 13:04:30;;;;;;;4.17;1.00;;;;;;;;;;4932020;28;20247;-73
2023/03/16 13:07:02;;;;;;;5.43;1.10;;;;;;;;;;4898759;28;217473;-72
2023/03/16 13:09:31;;;;;;;3.17;1.03;;;;;;;;;;4952181;28;20267;-74
2023/03/16 13:12:03;;;;;;;5.53;1.13;;;;;;;;;;4978354;28;20597;-73
2023/03/16 13:14:34;;;;;;;2.67;1.30;;;;;;;;;;4967340;28;20219;-72
2023/03/16 13:17:05;;;;;;;2.93;0.97;;;;;;;;;;4984747;28;20261;-72
2023/03/16 13:19:36;;;;;;;5.67;1.67;;;;;;;;;;4983513;28;20228;-72
2023/03/16 13:22:05;;;;;;;3.73;1.20;;;;;;;;;;4943495;28;20757;-72
2023/03/16 13:24:37;;;;;;;5.73;1.33;;;;;;;;;;4968771;28;20757;-72
2023/03/16 13:27:05;;;;;;;5.47;1.13;;;;;;;;;;4981714;28;20247;-72
2023/03/16 13:29:32;;;;;;;4.43;1.33;;;;;;;;;;4985629;28;20638;-75
2023/03/16 13:32:00;;;;;;;5.27;1.20;;;;;;;;;;4967611;28;20243;-72
2023/03/16 13:34:31;;;;;;;2.90;1.23;;;;;;;;;;4953540;28;20236;-75
2023/03/16 13:36:58;;;;;;;3.60;1.10;;;;;;;;;;4924568;28;20238;-74
2023/03/16 13:39:28;;;;;;;10.93;5.33;;;;;;;;;;4985690;28;20239;-73
2023/03/16 13:41:56;;;;;;;7.63;3.83;;;;;;;;;;4982102;28;20250;-77
2023/03/16 13:44:24;;;;;;;10.80;3.87;;;;;;;;;;4983908;28;20266;-73
2023/03/16 13:46:50;;;;;;;6.80;3.53;;;;;;;;;;4951932;28;20255;-73
2023/03/16 13:49:18;;;;;;;5.40;1.30;;;;;;;;;;4966385;28;20703;-72
2023/03/16 13:51:46;;;;;;;4.73;1.17;;;;;;;;;;4985900;28;20228;-73
2023/03/16 13:54:30;;;;;;;4.97;1.30;;;;;;;;;;4970136;28;20232;-74
2023/03/16 13:56:58;;;;;;;6.43;1.20;;;;;;;;;;4966619;28;20227;-79
2023/03/16 13:59:25;;;;;;;3.40;1.23;;;;;;;;;;4974099;28;21278;-72
2023/03/16 14:01:57;;;;;;;7.73;1.87;;;;;;;;;;4961559;28;20236;-75
2023/03/16 14:04:25;;;;;;;9.77;2.73;;;;;;;;;;4976137;28;218814;-73
2023/03/16 14:06:56;;;;;;;4.33;1.23;;;;;;;;;;4951912;28;20236;-75
2023/03/16 14:09:24;;;;;;;3.87;1.40;;;;;;;;;;4981947;28;20631;-72
2023/03/16 14:11:51;;;;;;;5.10;1.80;;;;;;;;;;4966476;28;20282;-71
2023/03/16 14:14:22;;;;;;;8.13;2.77;;;;;;;;;;4931116;28;20234;-75
2023/03/16 14:16:50;;;;;;;7.53;3.07;;;;;;;;;;4983085;28;20223;-77
2023/03/16 14:19:21;;;;;;;5.40;2.47;;;;;;;;;;4983703;28;20228;-74
2023/03/16 14:21:48;;;;;;;4.87;1.30;;;;;;;;;;4955253;28;20262;-74
2023/03/16 14:24:29;;;;;;;5.60;1.27;;;;;;;;;;4984120;28;20626;-74
2023/03/16 14:26:57;;;;;;;4.33;1.27;;;;;;;;;;4983778;28;20606;-74
2023/03/16 14:29:27;;;;;;;4.90;1.33;;;;;;;;;;4984456;28;20232;-74
2023/03/16 14:31:54;;;;;;;4.10;1.23;;;;;;;;;;4952864;28;20315;-73
2023/03/16 14:34:20;;;;;;;4.57;1.60;;;;;;;;;;4949894;28;20239;-74
2023/03/16 14:36:47;;;;;;;4.07;1.43;;;;;;;;;;4986763;28;20232;-73
2023/03/16 14:39:18;;;;;;;9.23;3.83;;;;;;;;;;4968016;28;20283;-73
2023/03/16 14:41:48;;;;;;;3.77;1.47;;;;;;;;;;4967321;28;20236;-74
2023/03/16 14:44:17;;;;;;;5.43;1.77;;;;;;;;;;4985809;28;20604;-73
2023/03/16 14:47:03;;;;;;;6.03;1.87;;;;;;;;;;4967552;28;20231;-74
2023/03/16 14:49:32;;;;;;;5.17;2.10;;;;;;;;;;4985650;28;20634;-73
2023/03/16 14:52:14;;;;;;;7.50;1.60;;;;;;;;;;4967477;28;20232;-74
2023/03/16 14:54:40;;;;;;;5.43;1.63;;;;;;;;;;4968775;28;20235;-73
2023/03/16 14:57:13;;;;;;;5.50;2.40;;;;;;;;;;4983856;28;20314;-73
2023/03/16 14:59:39;;;;;;;4.40;1.20;;;;;;;;;;4966709;28;20227;-73
2023/03/16 15:02:08;;;;;;;2.70;0.90;;;;;;;;;;4968555;28;20236;-73
2023/03/16 15:04:36;;;;;;;4.43;1.10;;;;;;;;;;4982780;28;20318;-73
2023/03/16 15:07:07;;;;;;;3.73;1.53;;;;;;;;;;4983790;28;20235;-73
2023/03/16 15:09:35;;;;;;;3.00;1.10;;;;;;;;;;4966655;28;20313;-73
2023/03/16 15:12:01;;;;;;;2.90;1.10;;;;;;;;;;4985908;28;20246;-73
2023/03/16 15:17:14;;;;;;;3.30;1.90;;;;;;;;;;4968690;28;20307;-72
2023/03/16 15:19:40;;;;;;;2.97;1.70;;;;;;;;;;4982185;28;20224;-72
2023/03/16 15:22:08;;;;;;;4.33;1.40;;;;;;;;;;4981379;28;20243;-72
2023/03/16 15:24:35;;;;;;;1.93;1.13;;;;;;;;;;4980481;28;20224;-72
2023/03/16 15:27:02;;;;;;;4.50;1.50;;;;;;;;;;4985074;28;20258;-72
2023/03/16 15:29:28;;;;;;;4.17;1.73;;;;;;;;;;4974102;28;20227;-72
2023/03/16 15:31:55;;;;;;;2.83;0.90;;;;;;;;;;4941826;28;20268;-71